sensor_id;sensor_type;location;lat;lon;timestamp;pressure;altitude;pressure_sealevel;temperature;humidity
21956;BME280;11142;49.930;8.606;2023-08-01T00:02:00;98828.53;;;18.29;100.00
21956;BME280;11142;49.930;8.606;2023-08-01T00:04:29;98823.47;;;18.42;100.00
21956;BME280;11142;49.930;8.606;2023-08-01T00:06:57;98805.88;;;18.28;100.00
21956;BME280;11142;49.930;8.606;2023-08-01T00:09:25;98808.56;;;18.20;100.00
21956;BME280;11142;49.930;8.606;2023-08-01T00:11:53;98797.06;;;18.21;100.00
21956;BME280;11142;49.930;8.606;2023-08-01T00:14:22;98785.91;;;18.19;100.00
21956;BME280;11142;49.930;8.606;2023-08-01T00:16:51;98778.75;;;18.13;100.00
21956;BME280;11142;49.930;8.606;2023-08-01T00:19:21;98775.50;;;18.11;100.00
21956;BME280;11142;49.930;8.606;2023-08-01T00:21:49;98766.56;;;18.20;100.00
21956;BME280;11142;49.930;8.606;2023-08-01T00:24:17;98757.28;;;18.09;100.00
21956;BME280;11142;49.930;8.606;2023-08-01T00:26:45;98756.31;;;18.10;100.00
21956;BME280;11142;49.930;8.606;2023-08-01T00:29:14;98751.78;;;18.19;100.00
21956;BME280;11142;49.930;8.606;2023-08-01T00:31:42;98757.31;;;18.24;100.00
21956;BME280;11142;49.930;8.606;2023-08-01T00:34:10;98743.34;;;18.09;100.00
21956;BME280;11142;49.930;8.606;2023-08-01T00:36:40;98738.53;;;18.12;100.00
21956;BME280;11142;49.930;8.606;2023-08-01T00:39:09;98734.59;;;18.16;100.00
21956;BME280;11142;49.930;8.606;2023-08-01T00:41:37;98731.25;;;18.22;100.00
21956;BME280;11142;49.930;8.606;2023-08-01T00:44:09;98716.66;;;18.20;100.00
21956;BME280;11142;49.930;8.606;2023-08-01T00:46:38;98711.41;;;18.34;100.00
21956;BME280;11142;49.930;8.606;2023-08-01T00:49:07;98708.06;;;18.26;100.00
21956;BME280;11142;49.930;8.606;2023-08-01T00:51:35;98708.06;;;18.26;100.00
21956;BME280;11142;49.930;8.606;2023-08-01T00:54:05;98699.72;;;18.37;100.00
21956;BME280;11142;49.930;8.606;2023-08-01T00:56:33;98705.44;;;18.26;100.00
21956;BME280;11142;49.930;8.606;2023-08-01T00:59:02;98697.97;;;18.00;100.00
21956;BME280;11142;49.930;8.606;2023-08-01T01:04:27;98713.88;;;17.98;100.00
21956;BME280;11142;49.930;8.606;2023-08-01T01:06:57;98710.38;;;17.91;100.00
21956;BME280;11142;49.930;8.606;2023-08-01T01:09:27;98678.56;;;17.86;100.00
21956;BME280;11142;49.930;8.606;2023-08-01T01:11:55;98660.75;;;17.96;100.00
21956;BME280;11142;49.930;8.606;2023-08-01T01:14:24;98661.69;;;18.03;100.00
21956;BME280;11142;49.930;8.606;2023-08-01T01:16:52;98669.38;;;18.05;100.00
21956;BME280;11142;49.930;8.606;2023-08-01T01:19:20;98649.28;;;17.97;100.00
21956;BME280;11142;49.930;8.606;2023-08-01T01:21:50;98645.00;;;17.96;100.00
21956;BME280;11142;49.930;8.606;2023-08-01T01:24:19;98657.78;;;17.99;100.00
21956;BME280;11142;49.930;8.606;2023-08-01T01:26:48;98655.72;;;18.10;100.00
21956;BME280;11142;49.930;8.606;2023-08-01T01:29:17;98643.75;;;18.07;100.00
21956;BME280;11142;49.930;8.606;2023-08-01T01:31:45;98643.31;;;18.03;100.00
21956;BME280;11142;49.930;8.606;2023-08-01T01:34:13;98644.19;;;17.96;100.00
21956;BME280;11142;49.930;8.606;2023-08-01T01:36:42;98639.75;;;17.96;100.00
21956;BME280;11142;49.930;8.606;2023-08-01T01:39:11;98635.31;;;17.97;100.00
21956;BME280;11142;49.930;8.606;2023-08-01T01:41:39;98630.63;;;18.07;100.00
21956;BME280;11142;49.930;8.606;2023-08-01T01:44:07;98616.28;;;17.95;100.00
21956;BME280;11142;49.930;8.606;2023-08-01T01:46:36;98618.75;;;17.96;100.00
21956;BME280;11142;49.930;8.606;2023-08-01T01:49:04;98599.75;;;17.94;100.00
21956;BME280;11142;49.930;8.606;2023-08-01T01:51:32;98591.59;;;17.89;100.00
21956;BME280;11142;49.930;8.606;2023-08-01T01:54:01;98591.22;;;17.92;100.00
21956;BME280;11142;49.930;8.606;2023-08-01T01:56:31;98597.03;;;18.02;100.00
21956;BME280;11142;49.930;8.606;2023-08-01T01:58:59;98575.78;;;17.97;100.00
21956;BME280;11142;49.930;8.606;2023-08-01T02:01:27;98570.97;;;18.01;100.00
21956;BME280;11142;49.930;8.606;2023-08-01T02:03:55;98557.56;;;17.96;100.00
21956;BME280;11142;49.930;8.606;2023-08-01T02:06:25;98551.88;;;17.78;100.00
21956;BME280;11142;49.930;8.606;2023-08-01T02:08:54;98563.19;;;17.78;100.00
21956;BME280;11142;49.930;8.606;2023-08-01T02:11:26;98567.00;;;17.90;100.00
21956;BME280;11142;49.930;8.606;2023-08-01T02:13:55;98578.31;;;17.91;100.00
21956;BME280;11142;49.930;8.606;2023-08-01T02:16:23;98574.22;;;18.03;100.00
21956;BME280;11142;49.930;8.606;2023-08-01T02:18:51;98564.25;;;17.98;100.00
21956;BME280;11142;49.930;8.606;2023-08-01T02:21:19;98559.47;;;18.02;100.00
21956;BME280;11142;49.930;8.606;2023-08-01T02:23:47;98572.16;;;18.13;100.00
21956;BME280;11142;49.930;8.606;2023-08-01T02:26:15;98558.00;;;18.14;100.00
21956;BME280;11142;49.930;8.606;2023-08-01T02:28:43;98542.25;;;18.14;100.00
21956;BME280;11142;49.930;8.606;2023-08-01T02:31:13;98552.50;;;18.09;100.00
21956;BME280;11142;49.930;8.606;2023-08-01T02:33:42;98548.22;;;18.08;100.00
21956;BME280;11142;49.930;8.606;2023-08-01T02:36:10;98536.28;;;18.05;100.00
21956;BME280;11142;49.930;8.606;2023-08-01T02:38:38;98532.59;;;18.00;100.00
21956;BME280;11142;49.930;8.606;2023-08-01T02:41:06;98527.06;;;18.10;100.00
21956;BME280;11142;49.930;8.606;2023-08-01T02:43:34;98512.66;;;18.05;100.00
21956;BME280;11142;49.930;8.606;2023-08-01T02:46:03;98498.09;;;18.03;100.00
21956;BME280;11142;49.930;8.606;2023-08-01T02:48:33;98511.94;;;18.12;100.00
21956;BME280;11142;49.930;8.606;2023-08-01T02:51:02;98512.53;;;18.28;100.00
21956;BME280;11142;49.930;8.606;2023-08-01T02:53:30;98503.22;;;18.26;100.00
21956;BME280;11142;49.930;8.606;2023-08-01T02:55:58;98493.53;;;18.12;100.00
21956;BME280;11142;49.930;8.606;2023-08-01T02:58:26;98493.53;;;18.12;100.00
21956;BME280;11142;49.930;8.606;2023-08-01T03:00:54;98487.31;;;18.13;100.00
21956;BME280;11142;49.930;8.606;2023-08-01T03:03:22;98495.09;;;18.06;100.00
21956;BME280;11142;49.930;8.606;2023-08-01T03:05:52;98512.50;;;18.07;100.00
21956;BME280;11142;49.930;8.606;2023-08-01T03:08:20;98505.41;;;18.22;100.00
21956;BME280;11142;49.930;8.606;2023-08-01T03:10:49;98492.56;;;18.13;100.00
21956;BME280;11142;49.930;8.606;2023-08-01T03:13:17;98504.69;;;18.14;100.00
21956;BME280;11142;49.930;8.606;2023-08-01T03:15:45;98491.81;;;18.19;100.00
21956;BME280;11142;49.930;8.606;2023-08-01T03:18:13;98498.25;;;18.16;100.00
21956;BME280;11142;49.930;8.606;2023-08-01T03:20:42;98504.88;;;18.12;100.00
21956;BME280;11142;49.930;8.606;2023-08-01T03:23:12;98494.91;;;18.08;100.00
21956;BME280;11142;49.930;8.606;2023-08-01T03:25:40;98516.91;;;18.07;100.00
21956;BME280;11142;49.930;8.606;2023-08-01T03:28:08;98529.78;;;18.16;100.00
21956;BME280;11142;49.930;8.606;2023-08-01T03:30:37;98518.38;;;18.09;100.00
21956;BME280;11142;49.930;8.606;2023-08-01T03:33:05;98515.81;;;18.16;100.00
21956;BME280;11142;49.930;8.606;2023-08-01T03:35:34;98520.00;;;18.10;100.00
21956;BME280;11142;49.930;8.606;2023-08-01T03:38:02;98507.75;;;18.17;100.00
21956;BME280;11142;49.930;8.606;2023-08-01T03:40:32;98504.94;;;18.19;100.00
21956;BME280;11142;49.930;8.606;2023-08-01T03:43:00;98514.09;;;18.23;100.00
21956;BME280;11142;49.930;8.606;2023-08-01T03:45:29;98517.34;;;18.25;100.00
21956;BME280;11142;49.930;8.606;2023-08-01T03:47:57;98506.38;;;18.21;100.00
21956;BME280;11142;49.930;8.606;2023-08-01T03:50:25;98492.06;;;18.24;100.00
21956;BME280;11142;49.930;8.606;2023-08-01T03:52:53;98504.41;;;18.23;100.00
21956;BME280;11142;49.930;8.606;2023-08-01T04:07:06;98494.03;;;18.36;100.00
21956;BME280;11142;49.930;8.606;2023-08-01T04:09:35;98492.59;;;18.34;100.00
21956;BME280;11142;49.930;8.606;2023-08-01T04:12:05;98488.53;;;18.31;100.00
21956;BME280;11142;49.930;8.606;2023-08-01T04:14:33;98481.25;;;18.33;100.00
21956;BME280;11142;49.930;8.606;2023-08-01T04:17:01;98493.84;;;18.38;100.00
21956;BME280;11142;49.930;8.606;2023-08-01T04:19:29;98486.59;;;18.40;100.00
21956;BME280;11142;49.930;8.606;2023-08-01T04:21:57;98492.78;;;18.32;100.00
21956;BME280;11142;49.930;8.606;2023-08-01T04:24:27;98485.97;;;18.38;100.00
21956;BME280;11142;49.930;8.606;2023-08-01T04:26:58;98473.75;;;18.30;100.00
21956;BME280;11142;49.930;8.606;2023-08-01T04:29:26;98479.09;;;18.37;100.00
21956;BME280;11142;49.930;8.606;2023-08-01T04:31:54;98478.97;;;18.45;100.00
21956;BME280;11142;49.930;8.606;2023-08-01T04:34:22;98475.22;;;18.33;100.00
21956;BME280;11142;49.930;8.606;2023-08-01T04:36:50;98478.25;;;18.36;100.00
21956;BME280;11142;49.930;8.606;2023-08-01T04:39:18;98475.41;;;18.31;100.00
21956;BME280;11142;49.930;8.606;2023-08-01T04:41:47;98476.00;;;18.33;100.00
21956;BME280;11142;49.930;8.606;2023-08-01T04:44:16;98475.34;;;18.46;100.00
21956;BME280;11142;49.930;8.606;2023-08-01T04:46:44;98473.34;;;18.48;100.00
21956;BME280;11142;49.930;8.606;2023-08-01T04:49:12;98468.91;;;18.48;100.00
21956;BME280;11142;49.930;8.606;2023-08-01T04:51:40;98469.41;;;18.37;100.00
21956;BME280;11142;49.930;8.606;2023-08-01T04:54:08;98467.44;;;18.25;100.00
21956;BME280;11142;49.930;8.606;2023-08-01T04:56:36;98465.06;;;18.30;100.00
21956;BME280;11142;49.930;8.606;2023-08-01T04:59:05;98463.00;;;18.25;100.00
21956;BME280;11142;49.930;8.606;2023-08-01T05:01:33;98444.31;;;18.14;100.00
21956;BME280;11142;49.930;8.606;2023-08-01T05:04:01;98430.81;;;18.02;100.00
21956;BME280;11142;49.930;8.606;2023-08-01T05:06:29;98413.47;;;18.01;100.00
21956;BME280;11142;49.930;8.606;2023-08-01T05:08:57;98387.03;;;18.02;100.00
21956;BME280;11142;49.930;8.606;2023-08-01T05:11:25;98389.03;;;18.00;100.00
21956;BME280;11142;49.930;8.606;2023-08-01T05:13:53;98400.72;;;17.98;100.00
21956;BME280;11142;49.930;8.606;2023-08-01T05:16:22;98378.63;;;17.92;100.00
21956;BME280;11142;49.930;8.606;2023-08-01T05:18:51;98387.31;;;17.93;100.00
21956;BME280;11142;49.930;8.606;2023-08-01T05:21:19;98380.06;;;17.95;100.00
21956;BME280;11142;49.930;8.606;2023-08-01T05:23:46;98389.06;;;17.86;100.00
21956;BME280;11142;49.930;8.606;2023-08-01T05:26:14;98401.94;;;17.81;100.00
21956;BME280;11142;49.930;8.606;2023-08-01T05:28:42;98399.38;;;17.87;100.00
21956;BME280;11142;49.930;8.606;2023-08-01T05:31:10;98426.28;;;17.75;100.00
21956;BME280;11142;49.930;8.606;2023-08-01T05:33:39;98435.88;;;17.68;100.00
21956;BME280;11142;49.930;8.606;2023-08-01T05:36:07;98419.09;;;17.54;100.00
21956;BME280;11142;49.930;8.606;2023-08-01T05:38:35;98416.66;;;17.38;100.00
21956;BME280;11142;49.930;8.606;2023-08-01T05:41:03;98434.88;;;17.25;100.00
21956;BME280;11142;49.930;8.606;2023-08-01T05:43:31;98422.28;;;17.20;100.00
21956;BME280;11142;49.930;8.606;2023-08-01T05:45:59;98449.31;;;17.21;100.00
21956;BME280;11142;49.930;8.606;2023-08-01T05:48:27;98439.47;;;17.23;100.00
21956;BME280;11142;49.930;8.606;2023-08-01T05:50:56;98445.44;;;17.31;100.00
21956;BME280;11142;49.930;8.606;2023-08-01T05:53:25;98445.78;;;17.28;100.00
21956;BME280;11142;49.930;8.606;2023-08-01T05:55:54;98415.88;;;17.23;100.00
21956;BME280;11142;49.930;8.606;2023-08-01T05:58:21;98422.44;;;17.19;100.00
21956;BME280;11142;49.930;8.606;2023-08-01T06:00:50;98410.81;;;17.21;100.00
21956;BME280;11142;49.930;8.606;2023-08-01T06:03:19;98389.38;;;17.18;100.00
21956;BME280;11142;49.930;8.606;2023-08-01T06:05:48;98386.94;;;17.16;100.00
21956;BME280;11142;49.930;8.606;2023-08-01T06:08:18;98439.56;;;17.29;100.00
21956;BME280;11142;49.930;8.606;2023-08-01T06:10:46;98443.63;;;17.32;100.00
21956;BME280;11142;49.930;8.606;2023-08-01T06:13:15;98413.78;;;17.33;100.00
21956;BME280;11142;49.930;8.606;2023-08-01T06:15:43;98419.22;;;17.31;100.00
21956;BME280;11142;49.930;8.606;2023-08-01T06:18:11;98433.78;;;17.34;100.00
21956;BME280;11142;49.930;8.606;2023-08-01T06:20:39;98431.88;;;17.42;100.00
21956;BME280;11142;49.930;8.606;2023-08-01T06:23:08;98438.41;;;17.46;100.00
21956;BME280;11142;49.930;8.606;2023-08-01T06:25:38;98438.09;;;17.41;100.00
21956;BME280;11142;49.930;8.606;2023-08-01T06:28:07;98430.78;;;17.51;100.00
21956;BME280;11142;49.930;8.606;2023-08-01T06:30:35;98435.03;;;17.52;100.00
21956;BME280;11142;49.930;8.606;2023-08-01T06:33:03;98457.56;;;17.47;100.00
21956;BME280;11142;49.930;8.606;2023-08-01T06:35:32;98448.66;;;17.56;100.00
21956;BME280;11142;49.930;8.606;2023-08-01T06:38:01;98466.91;;;17.64;100.00
21956;BME280;11142;49.930;8.606;2023-08-01T06:40:29;98480.66;;;17.66;100.00
21956;BME280;11142;49.930;8.606;2023-08-01T06:42:59;98483.91;;;17.68;100.00
21956;BME280;11142;49.930;8.606;2023-08-01T06:45:27;98497.59;;;17.78;100.00
21956;BME280;11142;49.930;8.606;2023-08-01T06:47:55;98495.22;;;17.83;100.00
21956;BME280;11142;49.930;8.606;2023-08-01T06:50:24;98501.09;;;17.85;100.00
21956;BME280;11142;49.930;8.606;2023-08-01T06:52:52;98505.09;;;17.81;100.00
21956;BME280;11142;49.930;8.606;2023-08-01T06:55:21;98519.19;;;17.80;100.00
21956;BME280;11142;49.930;8.606;2023-08-01T06:57:49;98537.00;;;17.56;100.00
21956;BME280;11142;49.930;8.606;2023-08-01T07:00:19;98529.28;;;17.54;100.00
21956;BME280;11142;49.930;8.606;2023-08-01T07:02:48;98533.56;;;17.70;100.00
21956;BME280;11142;49.930;8.606;2023-08-01T07:05:17;98549.03;;;17.79;100.00
21956;BME280;11142;49.930;8.606;2023-08-01T07:07:46;98546.53;;;17.71;100.00
21956;BME280;11142;49.930;8.606;2023-08-01T07:10:14;98528.88;;;17.80;100.00
21956;BME280;11142;49.930;8.606;2023-08-01T07:12:43;98527.69;;;18.12;100.00
21956;BME280;11142;49.930;8.606;2023-08-01T07:15:12;98522.94;;;18.51;100.00
21956;BME280;11142;49.930;8.606;2023-08-01T07:17:43;98528.88;;;18.60;100.00
21956;BME280;11142;49.930;8.606;2023-08-01T07:20:11;98526.44;;;18.58;100.00
21956;BME280;11142;49.930;8.606;2023-08-01T07:22:40;98528.03;;;18.74;100.00
21956;BME280;11142;49.930;8.606;2023-08-01T07:25:08;98525.06;;;18.62;100.00
21956;BME280;11142;49.930;8.606;2023-08-01T07:27:39;98529.75;;;18.67;100.00
21956;BME280;11142;49.930;8.606;2023-08-01T07:30:07;98548.59;;;18.70;100.00
21956;BME280;11142;49.930;8.606;2023-08-01T07:32:37;98547.88;;;18.62;100.00
21956;BME280;11142;49.930;8.606;2023-08-01T07:35:07;98549.59;;;18.69;100.00
21956;BME280;11142;49.930;8.606;2023-08-01T07:37:36;98554.97;;;18.61;100.00
21956;BME280;11142;49.930;8.606;2023-08-01T07:40:05;98559.72;;;18.51;100.00
21956;BME280;11142;49.930;8.606;2023-08-01T07:42:34;98555.59;;;18.84;100.00
21956;BME280;11142;49.930;8.606;2023-08-01T07:45:02;98558.50;;;18.89;100.00
21956;BME280;11142;49.930;8.606;2023-08-01T07:47:31;98565.00;;;19.15;100.00
21956;BME280;11142;49.930;8.606;2023-08-01T07:49:59;98564.38;;;19.34;100.00
21956;BME280;11142;49.930;8.606;2023-08-01T07:52:28;98567.59;;;19.36;100.00
21956;BME280;11142;49.930;8.606;2023-08-01T07:54:58;98564.19;;;19.14;100.00
21956;BME280;11142;49.930;8.606;2023-08-01T07:57:27;98566.00;;;19.14;100.00
21956;BME280;11142;49.930;8.606;2023-08-01T07:59:55;98566.16;;;19.05;100.00
21956;BME280;11142;49.930;8.606;2023-08-01T08:02:24;98566.81;;;19.14;100.00
21956;BME280;11142;49.930;8.606;2023-08-01T08:04:52;98561.91;;;19.81;100.00
21956;BME280;11142;49.930;8.606;2023-08-01T08:07:20;98573.56;;;20.00;100.00
21956;BME280;11142;49.930;8.606;2023-08-01T08:09:51;98575.50;;;20.73;100.00
21956;BME280;11142;49.930;8.606;2023-08-01T08:12:21;98577.25;;;21.53;100.00
21956;BME280;11142;49.930;8.606;2023-08-01T08:14:50;98587.88;;;22.37;100.00
21956;BME280;11142;49.930;8.606;2023-08-01T08:17:19;98596.22;;;23.16;100.00
21956;BME280;11142;49.930;8.606;2023-08-01T08:19:48;98606.09;;;24.26;100.00
21956;BME280;11142;49.930;8.606;2023-08-01T08:22:16;98616.47;;;24.46;100.00
21956;BME280;11142;49.930;8.606;2023-08-01T08:24:46;98616.56;;;24.21;100.00
21956;BME280;11142;49.930;8.606;2023-08-01T08:27:16;98623.25;;;23.80;100.00
21956;BME280;11142;49.930;8.606;2023-08-01T08:29:44;98619.31;;;24.51;100.00
21956;BME280;11142;49.930;8.606;2023-08-01T08:32:12;98628.41;;;24.91;100.00
21956;BME280;11142;49.930;8.606;2023-08-01T08:34:40;98635.13;;;25.05;100.00
21956;BME280;11142;49.930;8.606;2023-08-01T08:37:09;98642.44;;;25.10;100.00
21956;BME280;11142;49.930;8.606;2023-08-01T08:39:37;98636.84;;;25.00;100.00
21956;BME280;11142;49.930;8.606;2023-08-01T08:42:05;98644.97;;;25.46;100.00
21956;BME280;11142;49.930;8.606;2023-08-01T08:44:37;98651.44;;;27.34;100.00
21956;BME280;11142;49.930;8.606;2023-08-01T08:47:10;98658.94;;;27.66;100.00
21956;BME280;11142;49.930;8.606;2023-08-01T08:49:39;98649.75;;;27.28;100.00
21956;BME280;11142;49.930;8.606;2023-08-01T08:52:08;98658.22;;;25.34;100.00
21956;BME280;11142;49.930;8.606;2023-08-01T08:54:37;98646.28;;;22.29;100.00
21956;BME280;11142;49.930;8.606;2023-08-01T08:57:05;98634.13;;;21.75;100.00
21956;BME280;11142;49.930;8.606;2023-08-01T08:59:37;98640.63;;;22.05;100.00
21956;BME280;11142;49.930;8.606;2023-08-01T09:02:06;98643.34;;;20.99;100.00
21956;BME280;11142;49.930;8.606;2023-08-01T09:04:34;98648.75;;;21.58;100.00
21956;BME280;11142;49.930;8.606;2023-08-01T09:07:05;98635.34;;;20.73;100.00
21956;BME280;11142;49.930;8.606;2023-08-01T09:09:34;98643.38;;;21.05;100.00
21956;BME280;11142;49.930;8.606;2023-08-01T09:12:03;98640.22;;;21.49;100.00
21956;BME280;11142;49.930;8.606;2023-08-01T09:14:32;98649.16;;;22.01;100.00
21956;BME280;11142;49.930;8.606;2023-08-01T09:17:07;98658.44;;;21.38;100.00
21956;BME280;11142;49.930;8.606;2023-08-01T09:19:36;98651.00;;;20.87;100.00
21956;BME280;11142;49.930;8.606;2023-08-01T09:22:09;98646.06;;;21.25;100.00
21956;BME280;11142;49.930;8.606;2023-08-01T09:24:38;98642.13;;;21.01;100.00
21956;BME280;11142;49.930;8.606;2023-08-01T09:27:06;98645.50;;;21.49;100.00
21956;BME280;11142;49.930;8.606;2023-08-01T09:29:35;98650.56;;;21.77;100.00
21956;BME280;11142;49.930;8.606;2023-08-01T09:32:12;98652.59;;;21.82;100.00
21956;BME280;11142;49.930;8.606;2023-08-01T09:34:41;98652.97;;;22.24;100.00
21956;BME280;11142;49.930;8.606;2023-08-01T09:37:10;98658.75;;;23.17;100.00
21956;BME280;11142;49.930;8.606;2023-08-01T09:39:38;98660.06;;;22.44;100.00
21956;BME280;11142;49.930;8.606;2023-08-01T09:42:07;98669.28;;;22.86;100.00
21956;BME280;11142;49.930;8.606;2023-08-01T09:44:35;98670.03;;;22.35;100.00
21956;BME280;11142;49.930;8.606;2023-08-01T09:47:05;98668.56;;;22.52;100.00
21956;BME280;11142;49.930;8.606;2023-08-01T09:49:35;98669.78;;;22.50;100.00
21956;BME280;11142;49.930;8.606;2023-08-01T09:52:04;98668.44;;;21.88;100.00
21956;BME280;11142;49.930;8.606;2023-08-01T09:54:32;98668.16;;;22.42;100.00
21956;BME280;11142;49.930;8.606;2023-08-01T09:57:01;98670.03;;;22.42;100.00
21956;BME280;11142;49.930;8.606;2023-08-01T09:59:31;98666.75;;;23.04;100.00
21956;BME280;11142;49.930;8.606;2023-08-01T10:01:59;98672.75;;;23.62;100.00
21956;BME280;11142;49.930;8.606;2023-08-01T10:04:30;98684.75;;;22.89;100.00
21956;BME280;11142;49.930;8.606;2023-08-01T10:07:03;98675.50;;;22.40;100.00
21956;BME280;11142;49.930;8.606;2023-08-01T10:09:34;98672.16;;;22.64;100.00
21956;BME280;11142;49.930;8.606;2023-08-01T10:12:04;98687.56;;;22.16;100.00
21956;BME280;11142;49.930;8.606;2023-08-01T10:14:33;98686.13;;;22.07;100.00
21956;BME280;11142;49.930;8.606;2023-08-01T10:17:01;98689.75;;;22.33;100.00
21956;BME280;11142;49.930;8.606;2023-08-01T10:19:30;98690.59;;;22.20;100.00
21956;BME280;11142;49.930;8.606;2023-08-01T10:21:59;98700.34;;;23.03;100.00
21956;BME280;11142;49.930;8.606;2023-08-01T10:24:29;98696.28;;;24.44;100.00
21956;BME280;11142;49.930;8.606;2023-08-01T10:27:08;98701.28;;;25.55;88.51
21956;BME280;11142;49.930;8.606;2023-08-01T10:29:36;98702.75;;;22.67;100.00
21956;BME280;11142;49.930;8.606;2023-08-01T10:32:05;98702.16;;;21.66;100.00
21956;BME280;11142;49.930;8.606;2023-08-01T10:34:34;98700.94;;;21.76;100.00
21956;BME280;11142;49.930;8.606;2023-08-01T10:37:03;98697.41;;;24.91;85.50
21956;BME280;11142;49.930;8.606;2023-08-01T10:39:32;98692.09;;;23.87;83.74
21956;BME280;11142;49.930;8.606;2023-08-01T10:42:00;98702.09;;;24.16;86.90
21956;BME280;11142;49.930;8.606;2023-08-01T10:44:29;98705.09;;;23.33;95.73
21956;BME280;11142;49.930;8.606;2023-08-01T10:46:58;98715.16;;;22.66;100.00
21956;BME280;11142;49.930;8.606;2023-08-01T10:49:34;98720.22;;;22.68;100.00
21956;BME280;11142;49.930;8.606;2023-08-01T10:52:02;98718.41;;;22.42;100.00
21956;BME280;11142;49.930;8.606;2023-08-01T10:54:30;98722.50;;;21.86;100.00
21956;BME280;11142;49.930;8.606;2023-08-01T10:57:03;98712.31;;;22.48;100.00
21956;BME280;11142;49.930;8.606;2023-08-01T10:59:32;98708.44;;;24.33;97.88
21956;BME280;11142;49.930;8.606;2023-08-01T11:02:02;98716.00;;;24.91;85.57
21956;BME280;11142;49.930;8.606;2023-08-01T11:04:30;98707.28;;;23.98;95.77
21956;BME280;11142;49.930;8.606;2023-08-01T11:06:59;98713.34;;;24.05;98.48
21956;BME280;11142;49.930;8.606;2023-08-01T11:09:27;98711.66;;;24.11;86.15
21956;BME280;11142;49.930;8.606;2023-08-01T11:11:56;98713.88;;;24.81;87.29
21956;BME280;11142;49.930;8.606;2023-08-01T11:14:28;98712.78;;;26.13;80.55
21956;BME280;11142;49.930;8.606;2023-08-01T11:16:56;98719.41;;;24.98;82.85
21956;BME280;11142;49.930;8.606;2023-08-01T11:19:27;98715.06;;;24.43;81.89
21956;BME280;11142;49.930;8.606;2023-08-01T11:21:56;98720.75;;;25.19;74.93
21956;BME280;11142;49.930;8.606;2023-08-01T11:24:26;98708.47;;;24.88;74.70
21956;BME280;11142;49.930;8.606;2023-08-01T11:26:55;98706.72;;;24.82;76.22
21956;BME280;11142;49.930;8.606;2023-08-01T11:29:23;98715.63;;;23.46;78.12
21956;BME280;11142;49.930;8.606;2023-08-01T11:31:53;98715.78;;;23.82;78.99
21956;BME280;11142;49.930;8.606;2023-08-01T11:34:22;98721.50;;;26.55;69.29
21956;BME280;11142;49.930;8.606;2023-08-01T11:36:50;98728.19;;;27.61;60.33
21956;BME280;11142;49.930;8.606;2023-08-01T11:39:19;98749.88;;;30.10;50.77
21956;BME280;11142;49.930;8.606;2023-08-01T11:41:49;98733.28;;;31.84;42.18
21956;BME280;11142;49.930;8.606;2023-08-01T11:44:17;98731.81;;;29.90;45.34
21956;BME280;11142;49.930;8.606;2023-08-01T11:46:45;98728.13;;;28.39;48.71
21956;BME280;11142;49.930;8.606;2023-08-01T11:49:15;98742.00;;;29.93;45.82
21956;BME280;11142;49.930;8.606;2023-08-01T11:51:43;98746.28;;;29.40;46.27
21956;BME280;11142;49.930;8.606;2023-08-01T11:54:13;98735.28;;;25.76;58.87
21956;BME280;11142;49.930;8.606;2023-08-01T11:56:43;98737.41;;;24.71;67.94
21956;BME280;11142;49.930;8.606;2023-08-01T11:59:12;98740.72;;;27.77;54.51
21956;BME280;11142;49.930;8.606;2023-08-01T12:01:40;98739.22;;;26.26;58.92
21956;BME280;11142;49.930;8.606;2023-08-01T12:04:09;98738.41;;;25.43;63.35
21956;BME280;11142;49.930;8.606;2023-08-01T12:06:39;98725.25;;;25.48;71.29
21956;BME280;11142;49.930;8.606;2023-08-01T12:09:10;98737.34;;;28.86;54.52
21956;BME280;11142;49.930;8.606;2023-08-01T12:11:38;98753.50;;;31.14;41.56
21956;BME280;11142;49.930;8.606;2023-08-01T12:14:07;98762.78;;;31.94;41.26
21956;BME280;11142;49.930;8.606;2023-08-01T12:16:36;98749.00;;;32.86;38.37
21956;BME280;11142;49.930;8.606;2023-08-01T12:19:07;98771.00;;;33.13;36.16
21956;BME280;11142;49.930;8.606;2023-08-01T12:21:34;98770.38;;;31.10;41.80
21956;BME280;11142;49.930;8.606;2023-08-01T12:24:05;98754.91;;;28.27;46.38
21956;BME280;11142;49.930;8.606;2023-08-01T12:26:33;98756.69;;;26.92;52.11
21956;BME280;11142;49.930;8.606;2023-08-01T12:29:01;98756.56;;;26.75;51.64
21956;BME280;11142;49.930;8.606;2023-08-01T12:31:29;98742.13;;;28.84;46.93
21956;BME280;11142;49.930;8.606;2023-08-01T12:33:58;98756.03;;;28.86;44.43
21956;BME280;11142;49.930;8.606;2023-08-01T12:36:27;98762.25;;;31.67;38.88
21956;BME280;11142;49.930;8.606;2023-08-01T12:38:55;98759.56;;;28.04;45.15
21956;BME280;11142;49.930;8.606;2023-08-01T12:41:25;98746.31;;;25.50;55.63
21956;BME280;11142;49.930;8.606;2023-08-01T12:43:54;98749.09;;;25.55;64.75
21956;BME280;11142;49.930;8.606;2023-08-01T12:46:23;98743.06;;;28.57;47.11
21956;BME280;11142;49.930;8.606;2023-08-01T12:48:51;98737.31;;;27.81;47.55
21956;BME280;11142;49.930;8.606;2023-08-01T12:51:19;98745.00;;;26.70;53.84
21956;BME280;11142;49.930;8.606;2023-08-01T12:53:48;98748.53;;;25.34;59.27
21956;BME280;11142;49.930;8.606;2023-08-01T12:56:16;98740.16;;;24.22;67.49
21956;BME280;11142;49.930;8.606;2023-08-01T12:58:45;98755.44;;;27.23;58.97
21956;BME280;11142;49.930;8.606;2023-08-01T13:01:13;98753.78;;;28.23;51.94
21956;BME280;11142;49.930;8.606;2023-08-01T13:03:41;98759.13;;;30.29;42.41
21956;BME280;11142;49.930;8.606;2023-08-01T13:06:10;98753.81;;;29.22;44.51
21956;BME280;11142;49.930;8.606;2023-08-01T13:08:39;98747.59;;;28.56;45.23
21956;BME280;11142;49.930;8.606;2023-08-01T13:11:11;98752.09;;;32.19;35.87
21956;BME280;11142;49.930;8.606;2023-08-01T13:13:42;98758.13;;;33.00;34.34
21956;BME280;11142;49.930;8.606;2023-08-01T13:16:11;98761.16;;;33.43;32.98